Time;durP1;ratioP1;P1;durP2;ratioP2;P2;SDS_P1;SDS_P2;PMS_P1;PMS_P2;Temp;Humidity;BMP_temperature;BMP_pressure;BME280_temperature;BME280_humidity;BME280_pressure;Samples;Min_cycle;Max_cycle;Signal;HPM_P1;HPM_P2
2024/04/17 00:02:04;;;;;;;3.07;1.40;;;4.70;99.90;;;4.70;79.94;95603.00;2231599;60;26702;-75
2024/04/17 00:04:30;;;;;;;3.23;1.87;;;4.60;99.90;;;4.63;81.00;95597.00;2231154;60;26586;-76
2024/04/17 00:06:57;;;;;;;5.13;1.70;;;4.50;99.90;;;4.63;80.99;95600.00;2231665;60;26118;-75
2024/04/17 00:09:24;;;;;;;4.57;1.70;;;4.50;99.90;;;4.57;80.75;95598.00;2231716;60;26157;-75
2024/04/17 00:11:50;;;;;;;3.47;1.40;;;4.50;99.90;;;4.54;80.63;95602.00;2231970;60;26222;-75
2024/04/17 00:14:17;;;;;;;3.20;1.60;;;4.50;99.90;;;4.55;80.86;95600.00;2454121;56;26170;-75
2024/04/17 00:16:43;;;;;;;2.23;1.53;;;4.50;99.90;;;4.55;80.85;95603.00;2231851;60;26122;-75
2024/04/17 00:19:10;;;;;;;2.33;1.27;;;4.40;99.90;;;4.49;80.76;95609.00;2231600;60;26206;-75
2024/04/17 00:21:36;;;;;;;3.20;1.40;;;4.50;99.90;;;4.49;80.70;95599.00;2376372;56;26166;-75
2024/04/17 00:24:03;;;;;;;2.67;1.20;;;4.40;99.90;;;4.58;79.69;95598.00;2454572;56;26555;-75
2024/04/17 00:26:30;;;;;;;2.97;1.23;;;4.40;99.90;;;4.66;79.32;95588.00;2231510;60;26126;-75
2024/04/17 00:28:56;;;;;;;3.63;1.83;;;4.50;99.90;;;4.74;78.58;95593.00;2231649;60;26221;-75
2024/04/17 00:31:23;;;;;;;1.23;1.13;;;4.60;99.90;;;4.84;77.72;95583.00;2231433;60;26206;-75
2024/04/17 00:33:49;;;;;;;1.77;1.10;;;4.50;99.90;;;4.51;78.53;95578.00;2231466;60;26714;-76
2024/04/17 00:36:16;;;;;;;2.77;1.37;;;4.40;99.90;;;4.48;79.00;95576.00;2231788;60;26173;-75
2024/04/17 00:38:42;;;;;;;1.93;1.53;;;4.30;99.90;;;4.29;79.54;95567.00;2231979;60;26134;-75
2024/04/17 00:41:09;;;;;;;3.87;1.10;;;4.20;99.90;;;4.27;79.58;95569.00;2231237;60;26170;-76
2024/04/17 00:43:36;;;;;;;3.00;1.43;;;4.20;99.90;;;4.20;79.58;95564.00;2237330;56;26717;-75
2024/04/17 00:46:05;;;;;;;1.87;1.00;;;4.20;99.90;;;4.34;79.32;95562.00;2231687;60;26253;-75
2024/04/17 00:48:31;;;;;;;2.17;1.17;;;4.20;99.90;;;4.15;79.02;95550.00;2231735;60;26154;-75
2024/04/17 00:50:58;;;;;;;2.13;1.10;;;4.10;99.90;;;4.20;78.46;95545.00;2231920;60;26157;-75
2024/04/17 00:53:32;;;;;;;2.00;1.00;;;4.10;99.90;;;4.25;78.66;95544.00;2454703;55;26126;-75
2024/04/17 00:56:00;;;;;;;1.90;1.00;;;4.10;99.90;;;4.06;79.62;95547.00;2231863;60;26166;-75
2024/04/17 00:58:28;;;;;;;2.93;1.13;;;4.10;99.90;;;4.12;79.51;95546.00;2231873;60;26635;-75
2024/04/17 01:00:55;;;;;;;3.20;1.40;;;4.00;99.90;;;4.06;79.38;95542.00;2231694;60;26673;-75
2024/04/17 01:03:22;;;;;;;2.70;1.40;;;3.90;99.90;;;3.96;79.99;95536.00;2448400;56;26653;-75
2024/04/17 01:05:49;;;;;;;2.20;1.10;;;3.90;99.90;;;3.88;80.41;95534.00;2231583;60;26126;-75
2024/04/17 01:08:15;;;;;;;2.13;1.50;;;3.90;99.90;;;3.82;81.04;95533.00;2454079;56;26730;-75
2024/04/17 01:10:42;;;;;;;2.00;1.10;;;3.80;99.90;;;3.73;80.94;95523.00;2231748;60;26645;-75
2024/04/17 01:13:09;;;;;;;3.60;1.23;;;3.70;99.90;;;3.74;80.38;95528.00;2454346;56;26563;-75
2024/04/17 01:15:36;;;;;;;3.73;1.20;;;3.70;99.90;;;3.83;79.30;95537.00;2231688;60;26213;-75
2024/04/17 01:18:04;;;;;;;1.47;1.37;;;3.70;99.90;;;3.84;78.22;95526.00;2231597;60;26650;-75
2024/04/17 01:20:31;;;;;;;1.90;1.20;;;3.60;99.90;;;3.69;78.91;95520.00;2231731;60;26794;-75
2024/04/17 01:22:58;;;;;;;4.07;1.17;;;3.50;99.90;;;3.51;79.50;95513.00;2231783;60;26702;-75
2024/04/17 01:25:24;;;;;;;5.03;1.17;;;3.40;99.90;;;3.46;79.34;95507.00;2454476;56;26718;-75
2024/04/17 01:27:51;;;;;;;7.07;1.33;;;3.30;99.90;;;3.52;79.04;95493.00;2231683;60;26273;-75
2024/04/17 01:30:18;;;;;;;2.57;1.20;;;3.30;99.90;;;3.36;79.00;95504.00;2231331;60;26756;-75
2024/04/17 01:32:47;;;;;;;1.67;0.60;;;3.30;99.90;;;3.47;79.70;95501.00;2231623;60;26630;-75
2024/04/17 01:35:14;;;;;;;1.97;1.10;;;3.40;99.90;;;3.49;79.53;95504.00;2231918;60;26130;-75
2024/04/17 01:37:40;;;;;;;4.20;1.13;;;3.40;99.90;;;3.34;80.52;95506.00;2231797;60;26186;-75
2024/04/17 01:40:08;;;;;;;1.43;0.93;;;3.40;99.90;;;3.40;80.61;95501.00;2231695;60;26182;-75
2024/04/17 01:42:34;;;;;;;2.43;1.20;;;3.50;99.90;;;3.62;80.90;95495.00;2231758;60;27155;-75
2024/04/17 01:45:01;;;;;;;5.50;1.30;;;3.50;99.90;;;3.74;80.04;95493.00;2231752;60;26153;-75
2024/04/17 01:47:27;;;;;;;2.40;1.10;;;3.50;99.90;;;3.69;78.73;95498.00;2231987;60;27078;-75
2024/04/17 01:49:57;;;;;;;2.70;1.10;;;3.50;99.90;;;3.60;79.45;95499.00;2232027;60;26598;-75
2024/04/17 01:52:24;;;;;;;2.60;1.00;;;3.60;99.90;;;3.60;79.33;95494.00;2231948;60;26113;-75
2024/04/17 01:54:50;;;;;;;2.40;1.23;;;3.50;99.90;;;3.77;77.87;95490.00;2231803;60;26126;-75
2024/04/17 01:57:17;;;;;;;2.17;1.20;;;3.50;99.90;;;3.66;78.08;95493.00;2231922;60;26720;-75
2024/04/17 01:59:43;;;;;;;2.13;1.20;;;3.50;99.90;;;3.53;78.24;95492.00;2231816;60;26801;-75
2024/04/17 02:02:10;;;;;;;1.13;0.77;;;3.30;99.90;;;3.53;77.62;95491.00;2231806;60;26126;-75
2024/04/17 02:04:36;;;;;;;0.97;0.80;;;3.30;99.90;;;3.49;77.63;95488.00;2231733;60;26745;-75
2024/04/17 02:07:03;;;;;;;1.13;0.90;;;3.30;99.90;;;3.33;78.13;95489.00;2231693;60;26166;-75
2024/04/17 02:09:29;;;;;;;1.47;0.87;;;3.20;99.90;;;3.20;79.09;95482.00;2232018;60;26125;-75
2024/04/17 02:11:56;;;;;;;1.13;0.73;;;3.10;99.90;;;3.17;79.26;95485.00;2231861;60;26489;-75
2024/04/17 02:14:22;;;;;;;1.13;1.00;;;3.10;99.90;;;3.25;79.02;95490.00;2453978;56;26114;-75
2024/04/17 02:16:50;;;;;;;2.17;1.23;;;3.10;99.90;;;3.19;78.94;95485.00;2231662;60;26177;-75
2024/04/17 02:19:17;;;;;;;1.17;0.70;;;3.10;99.90;;;3.17;79.19;95477.00;2231603;60;26169;-75
2024/04/17 02:21:43;;;;;;;2.63;1.00;;;3.10;99.90;;;3.20;79.09;95479.00;2231863;60;26166;-75
2024/04/17 02:24:10;;;;;;;2.40;0.80;;;3.10;99.90;;;2.99;78.71;95480.00;2410827;56;26146;-75
2024/04/17 02:26:36;;;;;;;1.30;0.80;;;3.00;99.90;;;3.11;78.44;95465.00;2231455;60;26269;-75
2024/04/17 02:29:03;;;;;;;3.07;0.97;;;3.00;99.90;;;3.06;78.68;95472.00;2231402;60;26215;-75
2024/04/17 02:31:29;;;;;;;1.63;1.17;;;3.10;99.90;;;3.20;78.31;95468.00;2231379;60;26571;-75
2024/04/17 02:33:56;;;;;;;2.03;1.20;;;3.00;99.90;;;3.16;79.53;95467.00;2230724;60;26119;-75
2024/04/17 02:36:22;;;;;;;2.67;1.27;;;3.20;99.90;;;3.21;79.82;95460.00;2453487;56;26202;-75
2024/04/17 02:38:49;;;;;;;2.83;1.13;;;3.20;99.90;;;3.24;80.19;95459.00;2230732;60;26241;-75
2024/04/17 02:41:15;;;;;;;8.50;1.70;;;3.30;99.90;;;3.33;80.01;95454.00;2230980;60;26264;-75
2024/04/17 02:43:42;;;;;;;1.93;0.90;;;3.30;99.90;;;3.40;79.36;95453.00;2231068;60;26154;-75
2024/04/17 02:46:09;;;;;;;1.33;0.97;;;3.30;99.90;;;3.45;79.68;95447.00;2305665;56;26651;-75
2024/04/17 02:48:35;;;;;;;1.27;0.93;;;3.40;99.90;;;3.52;79.67;95446.00;2230025;60;26545;-75
2024/04/17 02:51:01;;;;;;;3.53;1.10;;;3.40;99.90;;;3.48;79.55;95446.00;2230155;60;26158;-75
2024/04/17 02:53:28;;;;;;;1.63;0.60;;;3.50;99.90;;;3.52;79.20;95451.00;2230500;60;26159;-75
2024/04/17 02:55:54;;;;;;;0.80;0.80;;;3.50;99.90;;;3.57;79.24;95451.00;2453133;56;26214;-75
2024/04/17 02:58:21;;;;;;;0.50;0.50;;;3.50;99.90;;;3.60;78.71;95444.00;2453293;56;26261;-75
2024/04/17 03:00:48;;;;;;;0.90;0.90;;;3.50;99.90;;;3.58;79.13;95444.00;2230795;60;26158;-75
2024/04/17 03:03:14;;;;;;;4.90;2.17;;;3.60;99.90;;;3.68;79.17;95449.00;2230823;60;26118;-75
2024/04/17 03:05:41;;;;;;;2.63;1.40;;;3.60;99.90;;;3.69;79.23;95452.00;2230433;60;26541;-75
2024/04/17 03:08:07;;;;;;;2.67;0.80;;;3.60;99.90;;;3.70;79.03;95453.00;2230908;60;26883;-75
2024/04/17 03:10:34;;;;;;;1.27;0.80;;;3.70;99.90;;;3.83;78.84;95456.00;2231643;60;26106;-75
2024/04/17 03:13:00;;;;;;;1.57;0.97;;;3.60;99.90;;;3.80;77.90;95458.00;2230357;60;26304;-75
2024/04/17 03:15:29;;;;;;;0.93;0.80;;;3.50;99.90;;;3.79;77.64;95457.00;2230628;60;26723;-75
2024/04/17 03:17:58;;;;;;;1.00;0.90;;;3.60;99.90;;;3.88;77.55;95446.00;2230873;60;26178;-75
2024/04/17 03:20:25;;;;;;;3.30;1.10;;;3.60;99.90;;;3.76;76.73;95459.00;2230802;60;26133;-75
2024/04/17 03:22:51;;;;;;;1.43;0.70;;;3.50;99.90;;;3.53;78.04;95457.00;2231140;60;26523;-75
2024/04/17 03:25:18;;;;;;;2.20;1.23;;;3.50;99.90;;;3.55;78.30;95450.00;2231082;60;26238;-75
2024/04/17 03:27:45;;;;;;;0.83;0.60;;;3.60;99.90;;;3.76;78.32;95457.00;2230845;60;26559;-75
2024/04/17 03:30:11;;;;;;;2.00;0.70;;;3.50;99.90;;;3.70;78.27;95463.00;2231008;60;26106;-75
2024/04/17 03:32:38;;;;;;;1.07;0.80;;;3.50;99.90;;;3.69;78.20;95457.00;2230929;60;26198;-75
2024/04/17 03:35:05;;;;;;;0.40;0.40;;;3.50;99.90;;;3.70;78.59;95450.00;2230671;60;26197;-75
2024/04/17 03:37:31;;;;;;;0.80;0.70;;;3.70;99.90;;;3.87;78.89;95466.00;2230407;60;26202;-75
2024/04/17 03:39:58;;;;;;;2.20;1.00;;;3.80;99.90;;;3.93;78.90;95454.00;2231209;60;26499;-75
2024/04/17 03:42:24;;;;;;;2.43;0.80;;;3.80;99.90;;;4.00;78.82;95455.00;2230383;60;26233;-75
2024/04/17 03:44:51;;;;;;;0.80;0.80;;;3.90;99.90;;;4.05;78.76;95456.00;2230644;60;26684;-75
2024/04/17 03:47:17;;;;;;;1.27;0.67;;;3.90;99.90;;;3.97;79.21;95453.00;2229983;60;26190;-75
2024/04/17 03:49:44;;;;;;;8.20;2.03;;;3.90;99.90;;;4.02;79.14;95461.00;2453138;56;26237;-75
2024/04/17 03:52:10;;;;;;;3.40;1.50;;;3.80;99.90;;;3.94;79.42;95459.00;2230767;60;26492;-75
2024/04/17 03:54:37;;;;;;;2.20;1.10;;;3.90;99.90;;;4.07;80.06;95453.00;2230006;60;26123;-75
2024/04/17 03:57:04;;;;;;;2.07;1.47;;;4.00;99.90;;;4.14;79.21;95453.00;2451837;56;26206;-75
2024/04/17 03:59:31;;;;;;;1.20;1.03;;;4.10;99.90;;;4.40;78.35;95458.00;2230190;60;26107;-76
2024/04/17 04:01:57;;;;;;;1.40;0.70;;;4.20;99.90;;;4.46;78.09;95463.00;2229830;60;26273;-75
2024/04/17 04:04:24;;;;;;;0.77;0.60;;;4.20;99.90;;;4.41;78.27;95464.00;2229601;60;26165;-75
2024/04/17 04:06:51;;;;;;;0.93;0.83;;;4.30;99.90;;;4.48;77.72;95474.00;2453036;56;26130;-76
2024/04/17 04:09:17;;;;;;;1.23;0.87;;;4.30;99.90;;;4.43;78.44;95468.00;2230707;60;26130;-75
2024/04/17 04:11:44;;;;;;;1.00;0.60;;;4.30;99.90;;;4.54;78.14;95470.00;2230699;60;26173;-75
2024/04/17 04:14:10;;;;;;;4.47;0.80;;;4.30;99.90;;;4.41;78.16;95460.00;2384677;56;26201;-75
2024/04/17 04:16:37;;;;;;;0.77;0.77;;;4.30;99.90;;;4.43;78.19;95470.00;2230544;60;26745;-75
2024/04/17 04:19:03;;;;;;;0.60;0.60;;;4.40;99.90;;;4.53;77.85;95473.00;2230680;60;27013;-75
2024/04/17 04:21:30;;;;;;;0.70;0.57;;;4.40;99.90;;;4.54;77.98;95475.00;2231074;60;26668;-75
2024/04/17 04:23:56;;;;;;;0.70;0.70;;;4.40;99.90;;;4.69;77.74;95478.00;2230917;60;26559;-75
2024/04/17 04:26:23;;;;;;;1.40;0.77;;;4.40;99.90;;;4.71;76.80;95475.00;2230561;60;26245;-75
2024/04/17 04:28:49;;;;;;;0.60;0.60;;;4.40;99.90;;;4.65;76.97;95476.00;2230290;60;26169;-76
2024/04/17 04:31:16;;;;;;;0.93;0.63;;;4.40;99.90;;;4.59;77.91;95478.00;2230479;60;26273;-75
2024/04/17 04:33:43;;;;;;;0.40;0.40;;;4.40;99.90;;;4.50;77.91;95482.00;2230674;60;26169;-75
2024/04/17 04:36:09;;;;;;;0.40;0.40;;;4.40;99.90;;;4.60;77.91;95490.00;2230178;60;26138;-75
2024/04/17 04:38:39;;;;;;;0.73;0.40;;;4.50;99.90;;;4.66;77.95;95480.00;2229000;60;26508;-76
2024/04/17 04:41:05;;;;;;;1.73;0.80;;;4.50;99.90;;;4.74;77.89;95490.00;2228799;60;26130;-76
2024/04/17 04:43:32;;;;;;;1.00;0.67;;;4.60;99.90;;;4.94;77.77;95495.00;2227659;60;26181;-75
2024/04/17 04:45:59;;;;;;;2.23;0.93;;;4.70;99.90;;;4.90;76.70;95485.00;2228117;60;26280;-75
2024/04/17 04:48:25;;;;;;;1.10;0.70;;;4.60;99.90;;;4.75;76.71;95489.00;2228575;60;26586;-75
2024/04/17 04:50:52;;;;;;;4.87;0.93;;;4.50;99.90;;;4.81;76.64;95489.00;2227431;60;26564;-75
2024/04/17 04:53:20;;;;;;;3.20;0.73;;;4.60;99.90;;;4.88;76.78;95479.00;2227485;60;26671;-76
2024/04/17 04:56:02;;;;;;;0.50;0.50;;;4.60;99.90;;;4.84;77.13;95491.00;2227996;60;26509;-76
2024/04/17 04:58:29;;;;;;;0.70;0.70;;;4.70;99.90;;;5.06;77.18;95488.00;2228931;60;26836;-75
2024/04/17 05:00:56;;;;;;;0.73;0.73;;;4.80;99.90;;;5.05;77.04;95502.00;2228661;60;26734;-76
2024/04/17 05:03:23;;;;;;;0.63;0.63;;;4.80;99.90;;;5.02;77.94;95508.00;2450455;56;26150;-75
2024/04/17 05:05:50;;;;;;;2.10;0.80;;;4.80;99.90;;;5.15;77.81;95502.00;2229162;60;26118;-75
2024/04/17 05:08:16;;;;;;;1.60;1.10;;;4.90;99.90;;;5.19;78.17;95505.00;2227653;60;26249;-76
2024/04/17 05:10:43;;;;;;;1.10;0.70;;;5.00;99.90;;;5.27;77.67;95500.00;2228785;60;26146;-75
2024/04/17 05:13:09;;;;;;;1.53;1.17;;;5.10;99.90;;;5.47;77.15;95498.00;2450021;56;26260;-76
2024/04/17 05:15:36;;;;;;;1.77;0.90;;;5.20;99.90;;;5.55;76.94;95499.00;2227256;60;26157;-76
2024/04/17 05:18:05;;;;;;;1.60;0.70;;;5.20;99.90;;;5.41;77.19;95506.00;2426758;56;26102;-76
2024/04/17 05:20:32;;;;;;;10.20;0.97;;;5.40;99.90;;;5.74;76.30;95508.00;2227637;60;26661;-76
2024/04/17 05:22:59;;;;;;;0.83;0.60;;;5.50;99.90;;;5.82;76.28;95502.00;2227209;60;26149;-76
2024/04/17 05:25:26;;;;;;;0.63;0.63;;;5.60;99.90;;;5.90;76.46;95505.00;2226532;60;26174;-76
2024/04/17 05:27:53;;;;;;;0.50;0.50;;;5.70;99.90;;;6.11;75.51;95509.00;2227932;60;26169;-76
2024/04/17 05:30:20;;;;;;;0.73;0.70;;;5.70;99.90;;;6.11;75.17;95511.00;2227591;60;26600;-76
2024/04/17 05:32:47;;;;;;;0.80;0.60;;;5.80;99.90;;;6.12;75.96;95513.00;2227606;60;26276;-75
2024/04/17 05:35:13;;;;;;;0.90;0.47;;;5.80;99.90;;;6.20;75.06;95505.00;2450526;56;26174;-76
2024/04/17 05:37:43;;;;;;;0.73;0.60;;;5.80;99.90;;;6.30;74.89;95510.00;2228392;60;26165;-76
2024/04/17 05:40:12;;;;;;;0.87;0.60;;;5.80;99.90;;;6.39;74.79;95513.00;2229270;60;26711;-76
2024/04/17 05:42:40;;;;;;;0.87;0.60;;;5.90;99.90;;;6.46;74.62;95509.00;2228591;60;26573;-76
2024/04/17 05:45:07;;;;;;;0.53;0.40;;;6.00;99.90;;;6.33;75.46;95515.00;2228476;60;26285;-76
2024/04/17 05:47:33;;;;;;;0.60;0.60;;;6.10;99.90;;;6.46;74.53;95513.00;2228930;60;26209;-76
2024/04/17 05:50:03;;;;;;;0.70;0.60;;;6.10;99.90;;;6.42;74.84;95513.00;2450046;56;26143;-75
2024/04/17 05:52:34;;;;;;;1.37;0.50;;;6.10;99.90;;;6.43;74.82;95517.00;2228540;60;26572;-76
2024/04/17 05:55:04;;;;;;;0.70;0.60;;;6.20;99.90;;;6.55;75.06;95510.00;2227730;60;26600;-76
2024/04/17 05:57:30;;;;;;;0.60;0.60;;;6.30;99.90;;;6.66;75.30;95508.00;2228802;60;26839;-76
2024/04/17 05:59:57;;;;;;;2.33;0.60;;;6.50;99.90;;;7.03;73.70;95510.00;2228263;60;26154;-74
2024/04/17 06:02:23;;;;;;;1.00;0.70;;;6.70;99.90;;;7.05;73.38;95505.00;2227524;60;26264;-74
2024/04/17 06:04:50;;;;;;;1.83;0.80;;;6.70;99.90;;;7.12;74.04;95506.00;2227481;60;26242;-74
2024/04/17 06:07:19;;;;;;;0.97;0.80;;;6.90;99.90;;;7.33;72.85;95502.00;2228344;60;26708;-74
2024/04/17 06:09:45;;;;;;;1.60;0.80;;;7.10;99.90;;;7.45;72.50;95508.00;2228201;60;26110;-74
2024/04/17 06:12:12;;;;;;;0.93;0.50;;;7.20;99.90;;;7.63;71.35;95513.00;2228271;60;26587;-74
2024/04/17 06:14:38;;;;;;;2.20;0.73;;;7.50;99.90;;;8.01;71.00;95501.00;2449689;56;26468;-74
2024/04/17 06:17:05;;;;;;;0.80;0.57;;;7.50;99.90;;;8.19;70.22;95508.00;2227571;60;26545;-74
2024/04/17 06:19:31;;;;;;;0.83;0.43;;;7.70;99.90;;;8.47;68.50;95512.00;2228110;60;26678;-74
2024/04/17 06:22:01;;;;;;;0.50;0.47;;;7.80;99.90;;;8.38;69.49;95508.00;2228405;60;26932;-74
2024/04/17 06:24:27;;;;;;;2.77;1.10;;;7.90;99.90;;;8.53;70.01;95508.00;2229296;60;26651;-74
2024/04/17 06:26:54;;;;;;;1.13;0.73;;;8.00;99.90;;;8.63;70.08;95511.00;2227446;60;26110;-74
2024/04/17 06:29:20;;;;;;;1.53;0.60;;;8.00;99.90;;;8.66;68.53;95505.00;2227823;60;26778;-74
2024/04/17 06:31:47;;;;;;;0.80;0.80;;;8.00;99.90;;;8.70;68.86;95511.00;2227161;60;26230;-74
2024/04/17 06:34:14;;;;;;;2.10;1.07;;;8.20;99.90;;;8.95;68.63;95509.00;2228972;60;26134;-74
2024/04/17 06:36:41;;;;;;;3.70;1.90;;;8.40;99.90;;;9.04;66.79;95515.00;2228980;60;26126;-74
2024/04/17 06:39:07;;;;;;;3.80;1.60;;;8.60;99.90;;;9.31;66.18;95507.00;2229002;60;26134;-74
2024/04/17 06:41:34;;;;;;;2.90;1.27;;;8.70;99.90;;;9.38;66.42;95502.00;2228895;60;26201;-74
2024/04/17 06:44:17;;;;;;;0.90;0.80;;;8.80;99.90;;;9.48;67.02;95506.00;2228579;60;26233;-74
2024/04/17 06:46:44;;;;;;;1.57;0.60;;;8.80;99.90;;;9.50;66.07;95517.00;2358260;56;26118;-74
2024/04/17 06:49:12;;;;;;;0.63;0.60;;;8.80;99.90;;;9.44;67.03;95516.00;2228548;60;26122;-74
2024/04/17 06:51:38;;;;;;;1.83;0.63;;;8.90;99.90;;;9.64;63.28;95511.00;2260462;56;26727;-74
2024/04/17 06:54:05;;;;;;;0.57;0.50;;;9.00;99.90;;;9.65;62.88;95504.00;2227295;60;26249;-74
2024/04/17 06:56:31;;;;;;;1.20;0.80;;;9.00;99.90;;;9.72;61.69;95507.00;2228189;60;26162;-74
2024/04/17 06:58:58;;;;;;;1.47;0.70;;;9.10;99.90;;;9.83;61.91;95511.00;2074528;59;9999892;-74
2024/04/17 07:01:24;;;;;;;0.87;0.50;;;9.30;99.90;;;10.08;62.45;95508.00;2449436;56;26178;-74
2024/04/17 07:03:51;;;;;;;1.17;0.60;;;9.30;99.90;;;9.96;63.95;95510.00;2226349;60;26960;-74
2024/04/17 07:06:18;;;;;;;0.70;0.57;;;9.20;99.90;;;9.98;65.47;95516.00;2227749;60;26138;-74
2024/04/17 07:08:44;;;;;;;0.87;0.67;;;9.30;99.90;;;10.12;65.10;95512.00;2227810;60;26506;-74
2024/04/17 07:11:11;;;;;;;1.10;0.80;;;9.50;99.90;;;10.28;62.74;95510.00;2226543;60;26125;-74
2024/04/17 07:13:37;;;;;;;2.40;0.90;;;9.50;99.90;;;10.21;63.77;95509.00;2449469;56;26143;-74
2024/04/17 07:16:05;;;;;;;7.63;1.60;;;9.60;99.90;;;10.32;64.76;95506.00;2227334;60;26816;-74
2024/04/17 07:18:31;;;;;;;0.90;0.77;;;9.60;99.90;;;10.36;64.93;95512.00;2227581;60;26552;-74
2024/04/17 07:20:58;;;;;;;1.03;0.87;;;9.80;99.90;;;10.42;65.16;95511.00;2227600;60;26201;-74
2024/04/17 07:23:24;;;;;;;1.90;1.40;;;9.80;99.90;;;10.50;63.38;95508.00;2227349;60;26702;-74
2024/04/17 07:25:53;;;;;;;0.97;0.60;;;9.90;99.90;;;10.75;63.75;95509.00;2299501;56;26590;-74
2024/04/17 07:28:20;;;;;;;2.07;1.10;;;10.10;99.90;;;11.09;62.18;95507.00;2227341;60;26812;-74
2024/04/17 07:30:46;;;;;;;1.30;0.97;;;10.30;99.90;;;11.20;61.00;95519.00;2227838;60;26122;-74
2024/04/17 07:33:13;;;;;;;1.53;0.87;;;10.50;99.90;;;11.41;60.36;95512.00;2225809;60;26568;-74
2024/04/17 07:35:40;;;;;;;2.50;1.10;;;10.60;99.90;;;11.40;59.84;95515.00;2226501;60;26226;-74
2024/04/17 07:38:09;;;;;;;10.03;0.90;;;10.40;99.90;;;11.22;59.04;95517.00;2227372;60;26526;-74
2024/04/17 07:40:37;;;;;;;2.17;0.77;;;10.50;99.90;;;11.35;59.00;95514.00;2228285;60;26190;-74
2024/04/17 07:43:04;;;;;;;1.13;0.70;;;10.70;99.90;;;11.55;59.62;95507.00;2319234;56;26238;-74
2024/04/17 07:45:30;;;;;;;1.03;0.77;;;10.90;99.90;;;11.87;59.13;95515.00;2227918;60;26205;-74
2024/04/17 07:47:57;;;;;;;2.10;0.80;;;11.10;99.90;;;12.13;57.63;95507.00;2226629;60;26106;-75
2024/04/17 07:50:24;;;;;;;1.10;0.73;;;11.50;99.90;;;12.51;58.22;95519.00;2224198;60;26125;-74
2024/04/17 07:52:50;;;;;;;2.43;0.80;;;11.60;99.90;;;12.74;56.67;95521.00;2445290;55;26732;-77
2024/04/17 07:55:18;;;;;;;1.43;0.80;;;11.80;99.90;;;12.80;56.45;95522.00;2226265;60;26963;-77
2024/04/17 07:57:44;;;;;;;0.77;0.77;;;11.90;99.90;;;12.92;56.48;95524.00;2228560;60;26277;-75
2024/04/17 08:00:11;;;;;;;1.90;0.90;;;12.00;99.90;;;12.99;56.15;95524.00;2226859;60;27503;-75
2024/04/17 08:02:39;;;;;;;1.87;0.80;;;12.40;99.90;;;13.34;55.66;95526.00;2226766;60;26178;-74
2024/04/17 08:05:07;;;;;;;1.50;0.80;;;12.50;99.40;;;13.55;54.69;95521.00;2228655;60;26501;-74
2024/04/17 08:07:33;;;;;;;2.70;0.90;;;12.70;99.40;;;13.95;54.24;95515.00;2228842;60;26107;-74
2024/04/17 08:10:00;;;;;;;1.17;0.90;;;12.80;98.30;;;13.96;52.63;95522.00;2227357;60;26316;-74
2024/04/17 08:12:27;;;;;;;2.03;1.00;;;12.90;98.30;;;14.13;52.38;95520.00;2228769;60;26231;-74
2024/04/17 08:14:54;;;;;;;1.53;0.80;;;12.90;98.50;;;14.11;53.18;95523.00;2227940;60;26130;-74
2024/04/17 08:17:20;;;;;;;1.43;1.00;;;12.90;98.80;;;14.08;53.66;95525.00;2228159;60;26203;-74
2024/04/17 08:19:48;;;;;;;0.50;0.50;;;12.80;98.70;;;13.88;53.86;95530.00;2228284;60;26122;-74
2024/04/17 08:22:15;;;;;;;1.93;1.73;;;12.40;99.40;;;13.55;55.28;95527.00;2227739;60;26149;-74
2024/04/17 08:24:42;;;;;;;0.83;0.50;;;12.10;99.90;;;13.20;56.33;95536.00;2228037;60;26229;-74
2024/04/17 08:27:09;;;;;;;2.47;1.03;;;12.00;99.90;;;12.98;57.55;95534.00;2226367;60;27112;-75
2024/04/17 08:29:35;;;;;;;0.70;0.47;;;12.00;99.90;;;12.95;57.55;95538.00;2226631;60;26714;-75
2024/04/17 08:32:02;;;;;;;0.73;0.53;;;12.00;99.90;;;13.11;58.28;95541.00;2228126;60;26190;-74
2024/04/17 08:34:29;;;;;;;0.83;0.50;;;11.90;99.90;;;13.04;58.31;95538.00;2227988;60;26987;-75
2024/04/17 08:36:55;;;;;;;0.93;0.60;;;11.80;99.90;;;12.77;58.70;95541.00;2228111;60;26166;-75
2024/04/17 08:39:22;;;;;;;0.67;0.50;;;11.90;99.90;;;12.83;60.12;95548.00;2450945;56;26630;-75
2024/04/17 08:41:55;;;;;;;1.00;0.50;;;12.10;99.90;;;13.13;57.46;95544.00;2229169;60;26641;-74
2024/04/17 08:44:29;;;;;;;0.77;0.60;;;12.20;99.90;;;13.32;56.01;95540.00;2228952;60;26194;-75
2024/04/17 08:47:01;;;;;;;2.43;0.50;;;12.10;99.90;;;13.07;58.01;95545.00;2449589;56;26186;-75
2024/04/17 08:49:34;;;;;;;1.30;0.40;;;12.20;99.70;;;13.12;56.32;95551.00;2227878;60;26548;-75
2024/04/17 08:52:05;;;;;;;5.10;0.70;;;12.20;99.00;;;13.23;54.71;95552.00;2228112;60;26309;-74
2024/04/17 08:54:33;;;;;;;1.43;0.53;;;12.20;99.40;;;13.15;55.65;95548.00;2402392;55;26679;-74
2024/04/17 08:56:59;;;;;;;3.30;0.80;;;12.20;99.90;;;13.09;57.23;95551.00;2227553;60;26729;-74
2024/04/17 08:59:26;;;;;;;2.47;1.10;;;12.10;99.40;;;13.00;55.92;95555.00;2227625;60;26425;-75
2024/04/17 09:01:54;;;;;;;0.60;0.60;;;12.10;99.30;;;12.89;56.05;95552.00;2226352;60;26182;-74
2024/04/17 09:04:21;;;;;;;2.37;0.53;;;11.90;99.30;;;12.76;56.11;95564.00;2226512;60;26744;-74
2024/04/17 09:06:51;;;;;;;1.13;0.40;;;11.80;99.70;;;12.60;56.88;95559.00;2448083;56;26934;-74
2024/04/17 09:09:19;;;;;;;0.50;0.50;;;11.70;99.90;;;12.43;57.58;95565.00;2449858;56;26178;-75
2024/04/17 09:11:46;;;;;;;2.90;0.60;;;11.50;99.90;;;12.32;59.38;95563.00;2227973;60;26166;-74
2024/04/17 09:14:19;;;;;;;0.90;0.60;;;11.40;99.90;;;12.18;59.34;95566.00;2227226;60;26934;-74
2024/04/17 09:16:46;;;;;;;1.13;0.70;;;11.40;99.90;;;12.21;60.31;95568.00;2225724;60;26137;-74
2024/04/17 09:19:12;;;;;;;1.33;0.67;;;11.40;99.90;;;12.17;60.48;95567.00;2224455;60;26147;-75
2024/04/17 09:21:42;;;;;;;2.33;0.73;;;11.40;99.90;;;12.27;59.60;95577.00;2304207;56;26551;-74
2024/04/17 09:24:09;;;;;;;4.63;0.80;;;11.60;99.90;;;12.55;60.67;95577.00;2226822;60;26146;-74
2024/04/17 09:26:37;;;;;;;2.77;0.70;;;11.80;99.90;;;12.86;59.41;95571.00;2226212;60;26717;-74
2024/04/17 09:29:03;;;;;;;2.00;0.70;;;12.10;99.90;;;13.12;58.62;95577.00;2227573;60;26457;-74
2024/04/17 09:31:30;;;;;;;3.20;1.07;;;12.20;99.90;;;13.21;58.76;95575.00;2227455;60;26214;-74
2024/04/17 09:33:59;;;;;;;1.33;0.70;;;12.50;99.90;;;13.42;58.38;95576.00;2227101;60;26161;-74
2024/04/17 09:36:25;;;;;;;0.87;0.70;;;12.50;99.90;;;13.41;57.52;95570.00;2228625;60;26583;-74
2024/04/17 09:38:52;;;;;;;0.90;0.53;;;12.40;99.10;;;13.32;55.33;95576.00;2227006;60;26159;-74
2024/04/17 09:41:20;;;;;;;1.17;0.50;;;12.30;99.00;;;13.22;55.31;95569.00;2449261;56;26758;-74
2024/04/17 09:43:49;;;;;;;0.60;0.60;;;12.30;99.60;;;13.32;56.18;95571.00;2449429;56;26645;-74
2024/04/17 09:46:16;;;;;;;1.10;0.77;;;12.30;99.50;;;13.23;56.18;95565.00;2227692;60;26122;-74
2024/04/17 09:48:49;;;;;;;0.97;0.90;;;12.60;99.70;;;13.54;56.21;95566.00;2225651;60;26209;-74
2024/04/17 09:51:24;;;;;;;0.93;0.73;;;12.70;99.90;;;13.72;56.68;95570.00;2227145;60;26134;-74
2024/04/17 09:54:02;;;;;;;1.13;0.60;;;12.70;98.60;;;13.70;53.98;95569.00;2227478;60;26610;-74
2024/04/17 09:56:30;;;;;;;4.33;0.70;;;12.80;98.90;;;13.81;54.81;95568.00;2226876;60;26241;-74
2024/04/17 10:17:44;;;;;;;1.03;0.50;;;13.10;96.90;;;14.01;52.11;95568.00;2230630;60;26694;-74
2024/04/17 10:20:30;;;;;;;0.40;0.40;;;13.40;97.10;;;14.40;52.14;95569.00;2229551;60;26135;-75
2024/04/17 10:23:06;;;;;;;3.40;0.47;;;13.30;96.00;;;14.27;50.11;95560.00;2451237;56;26887;-75
2024/04/17 10:25:33;;;;;;;0.57;0.57;;;13.20;95.20;;;14.21;49.21;95561.00;2229029;60;26213;-74
2024/04/17 10:28:18;;;;;;;0.83;0.70;;;13.20;95.40;;;14.35;49.14;95558.00;2229806;60;26130;-74
2024/04/17 10:30:46;;;;;;;2.03;1.00;;;13.20;95.50;;;14.22;49.68;95565.00;2229391;60;26186;-75
2024/04/17 10:33:45;;;;;;;0.50;0.50;;;13.00;95.10;;;14.23;48.93;95558.00;2229745;60;26237;-75
2024/04/17 10:36:12;;;;;;;0.60;0.47;;;13.10;95.80;;;14.22;50.05;95558.00;2229957;60;26187;-75
2024/04/17 10:38:41;;;;;;;1.67;0.70;;;13.30;95.00;;;14.41;48.71;95553.00;2230914;60;26651;-74
2024/04/17 10:41:12;;;;;;;1.20;0.60;;;13.30;95.10;;;14.32;48.94;95553.00;2230294;60;26170;-74
2024/04/17 10:43:40;;;;;;;0.80;0.60;;;13.70;94.40;;;14.90;47.35;95546.00;2230312;60;26615;-74
2024/04/17 10:46:09;;;;;;;0.63;0.63;;;13.80;92.40;;;15.23;44.35;95547.00;2228953;60;27634;-74
2024/04/17 10:48:50;;;;;;;0.98;0.57;;;14.40;93.30;;;15.87;45.26;95551.00;2260921;56;26241;-75